Time;durP1;ratioP1;P1;durP2;ratioP2;P2;SDS_P1;SDS_P2;PMS_P1;PMS_P2;Temp;Humidity;BMP_temperature;BMP_pressure;BME280_temperature;BME280_humidity;BME280_pressure;Samples;Min_cycle;Max_cycle;Signal;HPM_P1;HPM_P2
2021/01/04 00:01:30;;;;;;;9.20;2.67;;;;;;;2.42;100.00;101133.31;5022318;28;20637;-66
2021/01/04 00:04:22;;;;;;;6.97;2.57;;;;;;;2.38;100.00;101127.16;5023822;28;20292;-65
2021/01/04 00:07:09;;;;;;;7.23;2.83;;;;;;;2.37;100.00;101124.50;5027023;28;20755;-66
2021/01/04 00:10:08;;;;;;;10.40;3.20;;;;;;;2.37;100.00;101124.50;5024731;28;20272;-66
2021/01/04 00:12:57;;;;;;;7.90;2.80;;;;;;;2.39;100.00;101122.88;5022088;28;20327;-64
2021/01/04 00:15:33;;;;;;;8.27;2.50;;;;;;;2.33;100.00;101124.38;5032401;28;20300;-64
2021/01/04 00:18:26;;;;;;;7.80;2.60;;;;;;;2.35;100.00;101122.75;5027401;28;20296;-66
2021/01/04 00:21:29;;;;;;;9.35;3.28;;;;;;;2.33;100.00;101129.56;5014147;28;20272;-64
2021/01/04 00:24:12;;;;;;;8.00;2.97;;;;;;;2.28;100.00;101123.31;5007286;28;20045;-65
2021/01/04 00:26:44;;;;;;;;;;;;;;;2.30;100.00;101126.84;5029244;28;20260;-66
2021/01/04 00:29:10;;;;;;;9.37;3.00;;;;;;;2.30;100.00;101121.69;5028179;28;19931;-66
2021/01/04 00:31:46;;;;;;;8.83;3.10;;;;;;;2.31;100.00;101128.63;5027658;28;20355;-66
2021/01/04 00:34:22;;;;;;;8.33;2.60;;;;;;;2.33;100.00;101124.38;5023565;28;20307;-65
2021/01/04 00:37:29;;;;;;;4.97;1.90;;;;;;;2.38;100.00;101123.69;5025685;28;20378;-66
2021/01/04 00:40:08;;;;;;;6.40;2.63;;;;;;;2.38;100.00;101121.09;5012538;28;20814;-67
2021/01/04 00:42:44;;;;;;;7.47;2.60;;;;;;;2.39;100.00;101128.91;5021833;28;20280;-66
2021/01/04 00:45:10;;;;;;;6.73;2.33;;;;;;;2.43;100.00;101122.19;5028279;28;20702;-67
2021/01/04 00:47:57;;;;;;;5.00;2.00;;;;;;;2.43;100.00;101129.94;5028299;28;20284;-67
2021/01/04 00:50:31;;;;;;;7.80;2.43;;;;;;;2.41;100.00;101127.28;5029591;28;20617;-65
2021/01/04 00:53:05;;;;;;;7.83;2.87;;;;;;;2.40;100.00;101129.78;5027132;28;20321;-66
2021/01/04 00:55:39;;;;;;;7.87;2.40;;;;;;;2.39;100.00;101122.88;5023801;28;20806;-66
2021/01/04 00:58:28;;;;;;;6.57;2.20;;;;;;;2.42;100.00;101139.34;5025036;28;20271;-66
2021/01/04 01:01:04;;;;;;;5.07;2.27;;;;;;;2.39;100.00;101134.06;5024114;28;20280;-67
2021/01/04 01:03:40;;;;;;;7.40;3.07;;;;;;;2.42;100.00;101133.31;5024110;28;20312;-66
2021/01/04 01:06:25;;;;;;;10.03;3.70;;;;;;;2.44;100.00;101134.28;5023559;28;20279;-66
2021/01/04 01:08:54;;;;;;;7.53;2.63;;;;;;;2.39;100.00;101130.63;5023371;28;20272;-66
2021/01/04 01:11:52;;;;;;;7.53;2.77;;;;;;;2.39;100.00;101144.41;5026275;28;20268;-65
2021/01/04 01:14:17;;;;;;;9.40;3.07;;;;;;;2.35;100.00;101133.06;5022169;28;20256;-66
2021/01/04 01:17:06;;;;;;;12.30;3.53;;;;;;;2.40;100.00;101134.94;5028731;28;20760;-66
2021/01/04 01:19:46;;;;;;;5.57;2.43;;;;;;;2.41;100.00;101126.38;5028196;28;20167;-66
2021/01/04 01:22:42;;;;;;;7.13;2.80;;;;;;;2.35;100.00;101143.41;5026236;28;20295;-66
2021/01/04 01:25:14;;;;;;;8.20;3.30;;;;;;;2.35;100.00;101138.22;5017453;28;20318;-65
2021/01/04 01:28:07;;;;;;;8.88;3.20;;;;;;;2.38;100.00;101142.63;5022055;28;20302;-66
2021/01/04 01:30:50;;;;;;;11.02;3.47;;;;;;;2.31;100.00;101140.63;5029772;28;20041;-65
2021/01/04 01:33:34;;;;;;;;;;;;;;;2.28;100.00;101141.38;5029239;28;20075;-66
2021/01/04 01:36:09;;;;;;;11.37;3.80;;;;;;;2.29;100.00;101152.56;5028071;28;19920;-66
2021/01/04 01:38:59;;;;;;;7.10;2.70;;;;;;;2.30;100.00;101152.66;5031540;28;20351;-66
2021/01/04 01:41:46;;;;;;;8.70;2.83;;;;;;;2.30;100.00;101141.44;5027271;28;20347;-66
2021/01/04 01:44:21;;;;;;;12.67;3.73;;;;;;;2.29;100.00;101150.88;5026863;28;20320;-65
2021/01/04 01:47:03;;;;;;;13.23;4.03;;;;;;;2.31;100.00;101156.13;5026494;28;20292;-66
2021/01/04 01:49:36;;;;;;;;;;;;;;;2.33;100.00;101152.78;5024656;28;20718;-66
2021/01/04 01:52:13;;;;;;;6.93;2.35;;;;;;;2.35;100.00;101156.28;5027024;28;20004;-66
2021/01/04 01:54:44;;;;;;;8.30;3.23;;;;;;;2.34;100.00;101157.13;5027820;28;20017;-66
2021/01/04 01:57:28;;;;;;;3.97;2.03;;;;;;;2.35;100.00;101158.88;5026421;28;20726;-66
2021/01/04 02:00:28;;;;;;;10.40;3.33;;;;;;;2.31;100.00;101157.00;5022221;28;20291;-65
2021/01/04 02:03:51;;;;;;;5.47;2.70;;;;;;;2.26;100.00;101158.47;5017700;28;20300;-66
2021/01/04 02:06:22;;;;;;;7.10;2.95;;;;;;;2.28;100.00;101156.84;5006120;28;20723;-65
2021/01/04 02:08:57;;;;;;;10.43;3.05;;;;;;;2.25;100.00;101164.47;5004962;28;20834;-66
2021/01/04 02:11:38;;;;;;;9.77;3.40;;;;;;;2.28;100.00;101158.53;5019031;28;20133;-66
2021/01/04 02:14:17;;;;;;;5.07;1.90;;;;;;;2.27;100.00;101167.97;5026191;28;20292;-67
2021/01/04 02:17:23;;;;;;;13.63;3.13;;;;;;;2.26;100.00;101163.66;5025726;28;20841;-65
2021/01/04 02:20:16;;;;;;;9.90;2.53;;;;;;;2.29;100.00;101165.47;5021439;28;20462;-65
2021/01/04 02:23:05;;;;;;;3.58;1.85;;;;;;;2.30;100.00;101162.97;5024870;28;20417;-66
2021/01/04 02:25:35;;;;;;;10.37;3.23;;;;;;;2.29;100.00;101163.75;5022970;28;20038;-64
2021/01/04 02:28:07;;;;;;;13.17;3.17;;;;;;;2.29;100.00;101157.72;5021966;28;20283;-66
2021/01/04 02:30:32;;;;;;;11.98;3.42;;;;;;;2.27;100.00;101165.41;5030974;28;20351;-65
2021/01/04 02:32:58;;;;;;;10.60;3.27;;;;;;;2.29;100.00;101157.72;5028592;28;20036;-66
2021/01/04 02:35:24;;;;;;;5.47;2.23;;;;;;;2.31;100.00;101161.28;5024025;28;20380;-66
2021/01/04 02:37:51;;;;;;;17.13;4.47;;;;;;;2.29;100.00;101158.59;5027334;28;20030;-66
2021/01/04 02:40:17;;;;;;;11.33;4.10;;;;;;;2.27;100.00;101154.19;5028399;28;20029;-66
2021/01/04 02:42:46;;;;;;;10.00;3.27;;;;;;;2.24;100.00;101157.53;5029346;28;20714;-66
2021/01/04 02:45:18;;;;;;;8.97;3.50;;;;;;;2.24;100.00;101156.66;5025563;28;20030;-66
2021/01/04 02:47:53;;;;;;;10.77;3.63;;;;;;;2.23;100.00;101157.47;5026515;28;20284;-66
2021/01/04 02:50:43;;;;;;;14.00;3.67;;;;;;;2.20;100.00;101158.25;5021882;28;20178;-66
2021/01/04 02:53:36;;;;;;;9.43;3.20;;;;;;;2.21;100.00;101160.00;5026017;28;20371;-65
2021/01/04 02:56:08;;;;;;;12.53;3.00;;;;;;;2.20;100.00;101158.25;5026737;28;20354;-66
2021/01/04 02:58:52;;;;;;;6.93;2.63;;;;;;;2.24;100.00;101154.97;5027720;28;20029;-66
2021/01/04 03:01:24;;;;;;;9.93;3.57;;;;;;;2.24;100.00;101160.13;5027031;28;20291;-66
2021/01/04 03:03:49;;;;;;;7.57;3.03;;;;;;;2.20;100.00;101153.09;5027818;28;20306;-65
2021/01/04 03:06:22;;;;;;;12.17;4.10;;;;;;;2.20;100.00;101160.81;5023797;28;20033;-65
2021/01/04 03:08:47;;;;;;;10.37;3.10;;;;;;;2.16;100.00;101155.44;5028279;28;20398;-65
2021/01/04 03:11:16;;;;;;;15.27;3.90;;;;;;;2.13;100.00;101151.03;5026416;28;20286;-66
2021/01/04 03:13:56;;;;;;;10.03;3.40;;;;;;;2.18;100.00;101154.72;5023326;28;20091;-65
2021/01/04 03:17:08;;;;;;;12.27;3.33;;;;;;;2.17;100.00;101162.38;5025660;28;20272;-65
2021/01/04 03:19:38;;;;;;;9.00;3.27;;;;;;;2.16;100.00;101161.47;5011055;28;20720;-65
2021/01/04 03:22:06;;;;;;;4.80;2.30;;;;;;;2.23;100.00;101158.38;5023969;28;20300;-66
2021/01/04 03:24:32;;;;;;;13.70;3.67;;;;;;;2.28;100.00;101151.69;5020050;28;20671;-66
2021/01/04 03:27:07;;;;;;;16.93;4.40;;;;;;;2.25;100.00;101156.72;5017602;28;20311;-66
2021/01/04 03:29:33;;;;;;;10.63;3.50;;;;;;;2.22;100.00;101150.56;5023061;28;20112;-66
2021/01/04 03:31:58;;;;;;;9.57;3.23;;;;;;;2.22;100.00;101154.03;5027487;28;20276;-66
2021/01/04 03:34:24;;;;;;;14.37;4.03;;;;;;;2.23;100.00;101155.78;5018561;28;20033;-65
2021/01/04 03:36:49;;;;;;;14.07;4.37;;;;;;;2.23;100.00;101149.75;5030105;28;20472;-66
2021/01/04 03:39:15;;;;;;;10.97;3.33;;;;;;;2.30;100.00;101151.75;5023915;28;20033;-66
2021/01/04 03:41:40;;;;;;;10.67;4.00;;;;;;;2.28;100.00;101155.97;5026010;28;20037;-66
2021/01/04 03:44:06;;;;;;;8.53;3.70;;;;;;;2.28;100.00;101159.44;5027380;28;20029;-66
2021/01/04 03:46:31;;;;;;;9.30;3.03;;;;;;;2.34;100.00;101157.13;5025794;28;20083;-66
2021/01/04 03:48:57;;;;;;;10.33;3.33;;;;;;;2.35;100.00;101151.13;5022321;28;20488;-66
2021/01/04 03:51:22;;;;;;;12.63;3.67;;;;;;;2.39;100.00;101156.41;5027497;28;20041;-67
2021/01/04 03:53:47;;;;;;;8.27;3.10;;;;;;;2.36;100.00;101139.13;5020820;28;20033;-66
2021/01/04 03:56:15;;;;;;;10.67;3.13;;;;;;;2.44;100.00;101152.34;5025725;28;20029;-66
2021/01/04 03:58:40;;;;;;;8.50;3.00;;;;;;;2.46;100.00;101155.88;5025421;28;20036;-65
2021/01/04 04:01:06;;;;;;;10.60;3.37;;;;;;;2.48;100.00;101143.91;5024380;28;20291;-67
2021/01/04 04:03:31;;;;;;;10.63;2.80;;;;;;;2.49;100.00;101148.25;5028083;28;20120;-66
2021/01/04 04:05:57;;;;;;;10.87;3.30;;;;;;;2.51;100.00;101150.06;5023568;28;20052;-67
2021/01/04 04:08:22;;;;;;;10.73;3.13;;;;;;;2.54;100.00;101145.00;5025825;28;20065;-65
2021/01/04 04:10:47;;;;;;;8.13;2.13;;;;;;;2.56;100.00;101147.69;5028081;28;20037;-65
2021/01/04 04:13:13;;;;;;;9.37;2.70;;;;;;;2.55;100.00;101148.50;5024962;28;20033;-66
2021/01/04 04:15:38;;;;;;;11.17;3.33;;;;;;;2.56;100.00;101152.84;5027346;28;20072;-66
2021/01/04 04:18:04;;;;;;;8.50;3.03;;;;;;;2.51;100.00;101149.19;5029447;28;20457;-65
2021/01/04 04:20:29;;;;;;;9.87;3.13;;;;;;;2.59;100.00;101158.13;5023618;28;20033;-66
2021/01/04 04:22:55;;;;;;;7.27;2.23;;;;;;;2.62;100.00;101153.09;5026094;28;20044;-65
2021/01/04 04:25:23;;;;;;;12.80;3.67;;;;;;;2.57;100.00;101150.34;5024741;28;20084;-66
2021/01/04 04:27:50;;;;;;;11.07;3.03;;;;;;;2.55;100.00;101141.66;5026459;28;20030;-66
2021/01/04 04:30:21;;;;;;;12.07;3.40;;;;;;;2.53;100.00;101152.69;5024685;28;20302;-66
2021/01/04 04:32:47;;;;;;;11.17;3.27;;;;;;;2.54;100.00;101159.63;5025068;28;20338;-66
2021/01/04 04:35:13;;;;;;;9.83;2.43;;;;;;;2.57;100.00;101152.03;5027643;28;20771;-66
2021/01/04 04:37:43;;;;;;;11.37;2.93;;;;;;;2.61;100.00;101159.94;5026947;28;20292;-65
2021/01/04 04:40:18;;;;;;;11.63;2.90;;;;;;;2.59;100.00;101160.72;5024957;28;20031;-66
2021/01/04 04:42:45;;;;;;;12.00;3.00;;;;;;;2.58;100.00;101156.38;5026017;28;20283;-66
2021/01/04 04:45:16;;;;;;;12.03;2.90;;;;;;;2.58;100.00;101153.78;5022146;28;20437;-67
2021/01/04 04:48:09;;;;;;;6.23;2.10;;;;;;;2.64;100.00;101159.19;5028886;28;20272;-65
2021/01/04 04:50:40;;;;;;;;;;;;;;;2.67;100.00;101159.34;5030595;28;20671;-66
2021/01/04 04:53:36;;;;;;;5.10;1.97;;;;;;;2.68;100.00;101155.94;5031170;28;19966;-66
2021/01/04 04:56:04;;;;;;;6.87;2.30;;;;;;;2.74;100.00;101166.50;5029924;28;20279;-65
2021/01/04 04:58:51;;;;;;;8.60;2.60;;;;;;;2.75;100.00;101167.38;5027332;28;20280;-65
2021/01/04 05:01:38;;;;;;;7.93;2.83;;;;;;;2.79;100.00;101162.41;5029998;28;20286;-66
2021/01/04 05:04:23;;;;;;;5.33;2.20;;;;;;;2.74;100.00;101158.75;5030293;28;20288;-66
2021/01/04 05:06:58;;;;;;;9.03;2.80;;;;;;;2.75;100.00;101167.38;5029818;28;20308;-66
2021/01/04 05:09:24;;;;;;;8.77;2.50;;;;;;;2.75;100.00;101154.47;5028145;28;20288;-66
2021/01/04 05:12:07;;;;;;;7.20;2.60;;;;;;;2.74;100.00;101156.16;5031224;28;20437;-67
2021/01/04 05:14:39;;;;;;;6.03;2.10;;;;;;;2.80;100.00;101159.00;5021439;28;20041;-66
2021/01/04 05:17:10;;;;;;;4.47;1.52;;;;;;;2.81;100.00;101160.78;5030446;28;20280;-66
2021/01/04 05:20:00;;;;;;;8.73;2.93;;;;;;;2.81;100.00;101165.94;5028889;28;20115;-66
2021/01/04 05:22:37;;;;;;;7.53;2.63;;;;;;;2.75;100.00;101159.63;5030421;28;20689;-66
2021/01/04 05:25:40;;;;;;;6.37;1.97;;;;;;;2.73;100.00;101158.69;5028845;28;20284;-66
2021/01/04 05:28:45;;;;;;;6.05;1.90;;;;;;;2.72;100.00;101165.56;5027083;28;20271;-66
2021/01/04 05:31:39;;;;;;;7.30;2.03;;;;;;;2.78;100.00;101160.63;5022172;28;20370;-66
2021/01/04 05:34:45;;;;;;;6.23;2.13;;;;;;;2.73;100.00;101172.47;5032870;28;20263;-66
2021/01/04 05:37:23;;;;;;;4.47;1.80;;;;;;;2.71;100.00;101183.56;5007653;28;20691;-65
2021/01/04 05:40:02;;;;;;;7.17;2.67;;;;;;;2.70;100.00;101177.53;4999795;28;20285;-65
2021/01/04 05:42:43;;;;;;;7.07;1.90;;;;;;;2.64;100.00;101172.09;5019530;28;20323;-65
2021/01/04 05:45:24;;;;;;;4.90;1.50;;;;;;;2.57;100.00;101170.09;5028272;28;20295;-66
2021/01/04 05:48:37;;;;;;;6.33;1.63;;;;;;;2.61;100.00;101182.31;5023251;28;20280;-65
2021/01/04 05:51:15;;;;;;;10.82;2.20;;;;;;;2.63;100.00;101178.09;5021425;28;20287;-65
2021/01/04 05:53:42;;;;;;;6.00;2.30;;;;;;;2.78;100.00;101170.94;5026907;28;20028;-65
2021/01/04 05:56:07;;;;;;;7.33;2.00;;;;;;;2.75;100.00;101185.44;5024150;28;20276;-65
2021/01/04 05:58:34;;;;;;;5.67;1.80;;;;;;;2.78;100.00;101183.88;5025196;28;20349;-65
2021/01/04 06:01:27;;;;;;;5.77;1.70;;;;;;;2.81;100.00;101168.50;5028153;28;20028;-66
2021/01/04 06:04:03;;;;;;;4.43;1.70;;;;;;;2.80;100.00;101183.94;5025914;28;20354;-65
2021/01/04 06:06:33;;;;;;;4.80;1.60;;;;;;;2.73;100.00;101187.97;5030481;28;20531;-63
2021/01/04 06:09:08;;;;;;;5.07;1.80;;;;;;;2.71;100.00;101184.44;5019299;28;20352;-63
2021/01/04 06:11:33;;;;;;;4.77;1.60;;;;;;;2.70;100.00;101187.84;5026189;28;20358;-63
2021/01/04 06:14:05;;;;;;;4.93;1.83;;;;;;;2.89;100.00;101180.00;5015453;28;20364;-63
2021/01/04 06:16:31;;;;;;;3.13;1.40;;;;;;;2.88;100.00;101183.41;5017242;28;20039;-63
2021/01/04 06:19:12;;;;;;;4.97;1.70;;;;;;;2.87;100.00;101171.31;5021609;28;20116;-63
2021/01/04 06:21:57;;;;;;;5.07;1.50;;;;;;;2.86;100.00;101182.47;5030354;28;20037;-63
2021/01/04 06:24:33;;;;;;;4.20;1.47;;;;;;;2.94;100.00;101178.50;5047893;28;20333;-63
2021/01/04 06:27:21;;;;;;;5.10;1.67;;;;;;;2.96;100.00;101180.28;5040709;28;20367;-63
2021/01/04 06:29:49;;;;;;;2.67;1.20;;;;;;;3.07;100.00;101173.84;5016879;28;20828;-63
2021/01/04 06:32:27;;;;;;;7.80;1.80;;;;;;;3.02;100.00;101180.50;5012494;28;20376;-63
2021/01/04 06:34:58;;;;;;;4.70;1.40;;;;;;;2.91;100.00;101186.16;5015775;28;20279;-63
2021/01/04 06:37:27;;;;;;;4.63;1.20;;;;;;;2.97;100.00;101187.19;5031980;28;20627;-63
2021/01/04 06:40:02;;;;;;;4.27;1.90;;;;;;;2.97;100.00;101187.19;5028279;28;20280;-63
2021/01/04 06:42:34;;;;;;;3.20;1.30;;;;;;;2.94;100.00;101182.81;5031122;28;20279;-63
2021/01/04 06:45:02;;;;;;;5.60;1.67;;;;;;;3.00;100.00;101188.19;5027573;28;20827;-63
2021/01/04 06:47:44;;;;;;;7.93;1.70;;;;;;;3.11;100.00;101191.19;5014791;28;20292;-63
2021/01/04 06:50:12;;;;;;;5.77;1.30;;;;;;;3.11;100.00;101188.63;5026998;28;20292;-62
2021/01/04 06:52:56;;;;;;;2.77;1.40;;;;;;;3.09;100.00;101192.84;5028447;28;20316;-63
2021/01/04 06:55:52;;;;;;;4.53;1.60;;;;;;;2.98;100.00;101199.28;5015741;28;20280;-63
2021/01/04 06:58:46;;;;;;;3.73;1.30;;;;;;;2.91;100.00;101204.22;5020730;28;20346;-64
2021/01/04 07:01:37;;;;;;;3.90;1.67;;;;;;;2.86;100.00;101210.88;5016420;28;20272;-62
2021/01/04 07:04:18;;;;;;;4.13;1.37;;;;;;;2.79;100.00;101203.72;5012409;28;20743;-63
2021/01/04 07:07:02;;;;;;;4.53;1.50;;;;;;;2.75;100.00;101209.56;5022048;28;22155;-63
2021/01/04 07:09:46;;;;;;;4.50;1.50;;;;;;;2.70;100.00;101205.03;5025924;28;20285;-64
2021/01/04 07:12:23;;;;;;;4.57;1.80;;;;;;;2.68;100.00;101209.28;5022263;28;20285;-62
2021/01/04 07:15:28;;;;;;;6.83;1.57;;;;;;;2.74;100.00;101205.22;5012799;28;20716;-63
2021/01/04 07:18:19;;;;;;;3.73;1.50;;;;;;;2.73;100.00;101212.91;5022002;28;20319;-63
2021/01/04 07:21:07;;;;;;;5.07;1.73;;;;;;;2.70;100.00;101215.38;5019752;28;20764;-63
2021/01/04 07:23:47;;;;;;;5.70;1.57;;;;;;;2.70;100.00;101217.97;5018650;28;20785;-63
2021/01/04 07:26:40;;;;;;;5.70;1.80;;;;;;;2.67;100.00;101220.41;5011841;28;20287;-63
2021/01/04 07:29:35;;;;;;;3.90;1.77;;;;;;;2.64;100.00;101214.28;5012465;28;20277;-63
2021/01/04 07:32:17;;;;;;;6.30;2.20;;;;;;;2.66;100.00;101222.09;5019132;28;20291;-65
2021/01/04 07:34:55;;;;;;;5.27;1.57;;;;;;;2.68;100.00;101227.34;5012055;28;20326;-65
2021/01/04 07:37:51;;;;;;;6.20;2.10;;;;;;;2.69;100.00;101217.06;5011339;28;20815;-65
2021/01/04 07:40:53;;;;;;;8.70;2.37;;;;;;;2.70;100.00;101229.16;5034254;28;20385;-65
2021/01/04 07:43:28;;;;;;;6.05;2.30;;;;;;;2.65;100.00;101231.53;5005887;28;20280;-65
2021/01/04 07:46:35;;;;;;;3.77;1.63;;;;;;;2.70;100.00;101236.91;5020678;28;20112;-65
2021/01/04 07:49:23;;;;;;;10.50;2.53;;;;;;;2.69;100.00;101237.72;5019363;28;20283;-65
2021/01/04 07:52:26;;;;;;;4.53;1.77;;;;;;;2.69;100.00;101231.69;5018170;28;20895;-65
2021/01/04 07:55:20;;;;;;;6.15;1.92;;;;;;;2.72;100.00;101236.97;5012165;28;20296;-65
2021/01/04 07:58:01;;;;;;;5.87;2.13;;;;;;;2.77;100.00;101231.16;5010235;28;20069;-65
2021/01/04 08:00:55;;;;;;;7.37;2.50;;;;;;;2.79;100.00;101232.13;5011341;28;20272;-64
2021/01/04 08:03:24;;;;;;;6.07;2.10;;;;;;;2.75;100.00;101239.69;5024491;28;20285;-63
2021/01/04 08:06:17;;;;;;;5.50;1.77;;;;;;;2.79;100.00;101246.75;5011119;28;20288;-65
2021/01/04 08:08:45;;;;;;;5.97;2.28;;;;;;;2.78;100.00;101247.53;5028545;28;20288;-63
2021/01/04 08:11:29;;;;;;;6.77;2.10;;;;;;;2.76;100.00;101246.59;5010779;28;20022;-63
2021/01/04 08:13:57;;;;;;;6.20;2.07;;;;;;;2.77;100.00;101241.50;5030064;28;20283;-63
2021/01/04 08:16:39;;;;;;;5.10;2.23;;;;;;;2.78;100.00;101247.53;5010629;28;20288;-63
2021/01/04 08:19:08;;;;;;;6.57;2.50;;;;;;;2.78;100.00;101243.25;5017962;28;20280;-63
2021/01/04 08:21:46;;;;;;;5.53;2.30;;;;;;;2.84;100.00;101242.66;5010136;28;20060;-63
2021/01/04 08:24:20;;;;;;;5.70;2.30;;;;;;;2.85;100.00;101253.03;5023574;28;20295;-63
2021/01/04 08:27:29;;;;;;;4.70;1.83;;;;;;;2.86;100.00;101248.75;5019608;28;20264;-63
2021/01/04 08:29:54;;;;;;;6.77;2.47;;;;;;;2.85;100.00;101250.44;5011914;28;20292;-63
2021/01/04 08:32:32;;;;;;;5.33;2.20;;;;;;;2.88;100.00;101252.28;5027415;28;20303;-63
2021/01/04 08:35:09;;;;;;;7.47;2.63;;;;;;;2.88;100.00;101253.16;5012224;28;20147;-63
2021/01/04 08:37:39;;;;;;;5.07;2.10;;;;;;;2.90;100.00;101248.94;5015185;28;20293;-62
2021/01/04 08:40:32;;;;;;;6.13;2.33;;;;;;;2.88;100.00;101260.91;5010101;28;20281;-63
2021/01/04 08:43:05;;;;;;;8.52;2.75;;;;;;;2.92;100.00;101256.75;5019857;28;20284;-63
2021/01/04 08:45:45;;;;;;;5.10;2.27;;;;;;;2.90;100.00;101259.25;5030588;28;20119;-63
2021/01/04 08:48:18;;;;;;;5.90;2.17;;;;;;;2.92;100.00;101256.75;5033731;28;20670;-63
2021/01/04 08:50:58;;;;;;;6.97;2.80;;;;;;;2.90;100.00;101254.09;5016436;28;20354;-64
2021/01/04 08:53:24;;;;;;;6.87;2.50;;;;;;;2.97;100.00;101259.53;5016547;28;20783;-65
2021/01/04 08:55:50;;;;;;;10.53;2.60;;;;;;;2.93;100.00;101259.41;5010508;28;20308;-65
2021/01/04 08:58:31;;;;;;;4.60;1.67;;;;;;;2.95;100.00;101251.72;5017609;28;20029;-65
2021/01/04 09:01:08;;;;;;;5.70;2.37;;;;;;;2.94;100.00;101256.00;5020719;28;20279;-65
2021/01/04 09:03:35;;;;;;;7.40;2.53;;;;;;;2.96;100.00;101262.94;5015861;28;20703;-65
2021/01/04 09:06:35;;;;;;;4.90;2.23;;;;;;;2.97;100.00;101259.53;5011646;28;20292;-65
2021/01/04 09:09:19;;;;;;;5.63;2.40;;;;;;;2.94;100.00;101271.50;5018619;28;20394;-63
2021/01/04 09:12:03;;;;;;;5.30;2.13;;;;;;;2.93;100.00;101263.69;5019608;28;20579;-62
2021/01/04 09:14:57;;;;;;;6.00;2.60;;;;;;;2.96;100.00;101268.09;5028983;28;20664;-62
2021/01/04 09:17:49;;;;;;;3.50;1.53;;;;;;;3.01;100.00;101261.41;5010872;28;20264;-66
2021/01/04 09:20:28;;;;;;;6.03;2.50;;;;;;;3.03;100.00;101259.75;5032363;28;20679;-63
2021/01/04 09:23:18;;;;;;;4.73;2.07;;;;;;;3.11;100.00;101268.72;5009230;28;20280;-63
2021/01/04 09:25:51;;;;;;;5.03;2.30;;;;;;;3.17;100.00;101271.56;5013478;28;20288;-63
2021/01/04 09:28:19;;;;;;;7.20;2.27;;;;;;;3.27;100.00;101273.72;5012355;28;20264;-63
2021/01/04 09:30:45;;;;;;;4.83;2.13;;;;;;;3.32;100.00;101272.19;5031928;28;20272;-64
2021/01/04 09:33:16;;;;;;;4.83;2.27;;;;;;;3.38;100.00;101269.81;5036894;28;20305;-64
2021/01/04 09:35:42;;;;;;;4.17;1.93;;;;;;;3.44;100.00;101271.78;5013709;28;20079;-63
2021/01/04 09:38:14;;;;;;;8.00;2.00;;;;;;;3.51;100.00;101277.25;5013304;28;20284;-61
2021/01/04 09:40:39;;;;;;;3.60;1.63;;;;;;;3.58;100.00;101272.31;5016472;28;20488;-63
2021/01/04 09:43:12;;;;;;;6.67;2.90;;;;;;;3.67;100.00;101272.69;5036943;28;20365;-63
2021/01/04 09:45:38;;;;;;;3.88;1.90;;;;;;;3.73;100.00;101270.31;5031216;28;20116;-64
2021/01/04 09:48:08;;;;;;;5.07;1.90;;;;;;;3.74;100.00;101266.91;5012815;28;20088;-63
2021/01/04 09:50:50;;;;;;;5.97;2.20;;;;;;;3.73;100.00;101278.94;5021605;28;20378;-63
2021/01/04 09:53:24;;;;;;;6.90;2.35;;;;;;;3.61;100.00;101273.31;5012856;28;20319;-64
2021/01/04 09:55:50;;;;;;;4.20;1.73;;;;;;;3.57;100.00;101273.13;5041908;28;20040;-63
2021/01/04 09:58:19;;;;;;;6.23;2.37;;;;;;;3.44;100.00;101280.41;5031280;28;20323;-64
2021/01/04 10:00:47;;;;;;;4.80;2.30;;;;;;;3.43;100.00;101275.19;5025967;28;20287;-63
2021/01/04 10:03:19;;;;;;;5.20;2.20;;;;;;;3.42;100.00;101271.72;5030451;28;20276;-63
2021/01/04 10:05:48;;;;;;;5.57;2.17;;;;;;;3.39;100.00;101266.44;5024830;28;20303;-63
2021/01/04 10:08:19;;;;;;;4.53;1.90;;;;;;;3.37;100.00;101274.94;5027673;28;20030;-64
2021/01/04 10:10:59;;;;;;;4.67;2.10;;;;;;;3.34;100.00;101273.09;5026841;28;20837;-62
2021/01/04 10:13:27;;;;;;;4.27;1.97;;;;;;;3.37;100.00;101272.34;5037685;28;20341;-62
2021/01/04 10:15:56;;;;;;;4.90;2.20;;;;;;;3.37;100.00;101275.81;5043595;28;20663;-63
2021/01/04 10:18:57;;;;;;;4.43;2.20;;;;;;;3.33;100.00;101278.22;5039039;28;20293;-66
2021/01/04 10:21:55;;;;;;;5.00;2.10;;;;;;;3.33;100.00;101276.53;5021039;28;20277;-65
2021/01/04 10:24:28;;;;;;;2.27;1.10;;;;;;;3.34;100.00;101283.44;5012531;28;20331;-64
2021/01/04 10:26:55;;;;;;;3.73;1.93;;;;;;;3.34;100.00;101283.44;5027098;28;20863;-64
2021/01/04 10:29:25;;;;;;;4.17;1.83;;;;;;;3.37;100.00;101273.22;5044029;28;20292;-64
2021/01/04 10:32:02;;;;;;;5.50;2.00;;;;;;;3.42;100.00;101271.72;5028504;28;20275;-64
2021/01/04 10:34:37;;;;;;;4.67;2.10;;;;;;;3.46;100.00;101265.84;5012432;28;20299;-64
2021/01/04 10:37:04;;;;;;;4.30;1.93;;;;;;;3.46;100.00;101265.84;5016096;28;20307;-64
2021/01/04 10:39:35;;;;;;;8.83;2.30;;;;;;;3.44;100.00;101261.44;5031523;28;20282;-64
2021/01/04 10:42:20;;;;;;;4.10;1.95;;;;;;;3.37;100.00;101268.06;5031241;28;20284;-64
2021/01/04 10:44:45;;;;;;;5.03;1.53;;;;;;;3.29;100.00;101261.72;5018278;28;20037;-64
2021/01/04 10:47:28;;;;;;;3.80;1.53;;;;;;;3.21;100.00;101256.22;5023629;28;20280;-65
2021/01/04 10:50:04;;;;;;;4.53;1.87;;;;;;;3.20;100.00;101256.19;5019026;28;20018;-64
2021/01/04 10:52:30;;;;;;;5.07;1.97;;;;;;;3.21;100.00;101257.94;5027042;28;20767;-64
2021/01/04 10:54:55;;;;;;;5.43;2.17;;;;;;;3.21;100.00;101252.78;5018241;28;20278;-64
2021/01/04 10:57:29;;;;;;;5.70;2.63;;;;;;;3.23;100.00;101248.53;5032424;28;20037;-64
2021/01/04 11:00:18;;;;;;;3.93;1.80;;;;;;;3.21;100.00;101252.78;5012904;28;20538;-64
2021/01/04 11:02:46;;;;;;;4.27;2.00;;;;;;;3.21;100.00;101255.34;5014458;28;20269;-64
2021/01/04 11:05:15;;;;;;;6.30;1.60;;;;;;;3.15;100.00;101255.09;5011756;28;20312;-64
2021/01/04 11:07:40;;;;;;;4.93;2.10;;;;;;;3.08;100.00;101245.34;5020684;28;20273;-64
2021/01/04 11:10:24;;;;;;;4.77;2.10;;;;;;;3.04;100.00;101240.88;5011571;28;20651;-64
2021/01/04 11:12:55;;;;;;;4.97;2.40;;;;;;;3.02;100.00;101252.84;5012174;28;20045;-64
2021/01/04 11:15:32;;;;;;;3.80;1.60;;;;;;;3.04;100.00;101240.88;5011850;28;20269;-64
2021/01/04 11:18:06;;;;;;;4.70;2.27;;;;;;;2.98;100.00;101240.63;5022563;28;20288;-64
2021/01/04 11:20:32;;;;;;;3.70;1.53;;;;;;;2.93;100.00;101238.75;5045095;28;20765;-64
2021/01/04 11:23:03;;;;;;;4.70;2.07;;;;;;;2.90;100.00;101236.00;5030334;28;20302;-63
2021/01/04 11:25:29;;;;;;;4.03;1.87;;;;;;;2.88;100.00;101235.06;5030108;28;20355;-64
2021/01/04 11:27:54;;;;;;;6.20;2.17;;;;;;;2.92;100.00;101236.97;5025281;28;20383;-65
2021/01/04 11:30:20;;;;;;;3.77;1.60;;;;;;;2.98;100.00;101226.00;5041142;28;20385;-65
2021/01/04 11:32:46;;;;;;;6.70;2.20;;;;;;;2.89;100.00;101228.19;5043980;28;20025;-65
2021/01/04 11:35:11;;;;;;;4.23;2.03;;;;;;;2.80;100.00;101233.91;5048827;28;20021;-64
2021/01/04 11:37:37;;;;;;;7.93;1.90;;;;;;;2.77;100.00;101220.84;5031533;28;20045;-65
2021/01/04 11:40:03;;;;;;;4.47;2.17;;;;;;;2.78;100.00;101219.13;5028367;28;20026;-64
2021/01/04 11:42:29;;;;;;;5.90;1.73;;;;;;;2.77;100.00;101219.97;5037901;28;20337;-64
2021/01/04 11:44:54;;;;;;;4.23;1.50;;;;;;;2.83;100.00;101210.78;5049298;28;20021;-64
2021/01/04 11:47:19;;;;;;;4.30;1.57;;;;;;;2.82;100.00;101209.00;5030861;28;20038;-64
2021/01/04 11:49:45;;;;;;;3.67;1.83;;;;;;;2.73;100.00;101208.63;5048620;28;20098;-64
2021/01/04 11:52:11;;;;;;;4.37;1.70;;;;;;;2.76;100.00;101215.59;5030128;28;20554;-64
2021/01/04 11:54:41;;;;;;;2.97;1.63;;;;;;;2.77;100.00;101214.78;5049695;28;20416;-64
2021/01/04 11:57:06;;;;;;;3.73;1.60;;;;;;;2.73;100.00;101211.22;5017803;28;20021;-64
2021/01/04 11:59:34;;;;;;;8.40;1.63;;;;;;;2.67;100.00;101216.13;5049217;28;20345;-65
2021/01/04 12:01:59;;;;;;;5.07;1.90;;;;;;;2.62;100.00;101215.03;5030797;28;20052;-64
2021/01/04 12:04:24;;;;;;;3.93;1.53;;;;;;;2.63;100.00;101209.94;5050059;28;20276;-65
2021/01/04 12:06:50;;;;;;;6.90;2.23;;;;;;;2.59;100.00;101205.47;5029550;28;20049;-64
2021/01/04 12:09:16;;;;;;;7.40;1.90;;;;;;;2.56;100.00;101195.03;5042928;28;20032;-65